createdAt,value
2023-02-12T00:01:13.800Z,12.6
2023-02-12T00:04:02.592Z,9.6
2023-02-12T00:06:50.329Z,9.9
2023-02-12T00:09:37.758Z,8.2
2023-02-12T00:12:25.244Z,9
2023-02-12T00:15:12.657Z,8.2
2023-02-12T00:18:00.036Z,9
2023-02-12T00:20:47.792Z,6.4
2023-02-12T00:23:36.169Z,6.8
2023-02-12T00:26:25.858Z,9.1
2023-02-12T00:29:13.260Z,7.4
2023-02-12T00:32:00.764Z,10.2
2023-02-12T00:34:48.370Z,8.5
2023-02-12T00:37:36.701Z,7.3
2023-02-12T00:40:24.132Z,6.8
2023-02-12T00:43:11.555Z,7.3
2023-02-12T00:45:59.338Z,7.6
2023-02-12T00:48:47.785Z,7.3
2023-02-12T00:51:36.343Z,6.4
2023-02-12T00:54:23.977Z,8.3
2023-02-12T00:57:11.540Z,6.1
2023-02-12T00:59:59.283Z,7
2023-02-12T01:02:47.086Z,7.3
2023-02-12T01:05:35.656Z,6.1
2023-02-12T01:08:23.236Z,5.7
2023-02-12T01:11:10.787Z,5.3
2023-02-12T01:13:58.757Z,5.6
2023-02-12T01:16:46.177Z,5.9
2023-02-12T01:19:34.601Z,5.4
2023-02-12T01:22:21.938Z,6.8
2023-02-12T01:25:09.675Z,5.7
2023-02-12T01:27:57.819Z,6.1
2023-02-12T01:30:45.153Z,6.6
2023-02-12T01:33:32.747Z,5.2
2023-02-12T01:36:20.189Z,6.4
2023-02-12T01:39:08.814Z,6.8
2023-02-12T01:41:56.993Z,7.5
2023-02-12T01:44:44.273Z,8.2
2023-02-12T01:48:28.389Z,6.3
2023-02-12T01:51:20.809Z,5.6
2023-02-12T01:54:10.375Z,5.3
2023-02-12T01:57:00.261Z,6.4
2023-02-12T01:59:50.160Z,6.3
2023-02-12T02:02:41.293Z,5.3
2023-02-12T02:05:32.500Z,5.8
2023-02-12T02:08:28.015Z,5.6
2023-02-12T02:11:16.009Z,5.1
2023-02-12T02:14:35.338Z,5.8
2023-02-12T02:17:26.162Z,5.7
2023-02-12T02:20:24.569Z,5.3
2023-02-12T02:23:32.200Z,5.6
2023-02-12T02:26:39.567Z,4.9
2023-02-12T02:30:21.012Z,5.7
2023-02-12T02:33:19.489Z,6
2023-02-12T02:36:17.326Z,5.5
2023-02-12T02:39:12.968Z,5.9
2023-02-12T02:42:08.371Z,6.5
2023-02-12T02:45:02.557Z,5.6
2023-02-12T02:47:57.618Z,5.5
2023-02-12T02:50:50.446Z,4.4
2023-02-12T02:53:42.224Z,4.6
2023-02-12T02:56:34.291Z,4.8
2023-02-12T02:59:26.020Z,5
2023-02-12T03:02:19.302Z,4.4
2023-02-12T03:05:10.108Z,4.1
2023-02-12T03:08:02.983Z,4.5
2023-02-12T03:10:56.207Z,4.3
2023-02-12T03:13:48.192Z,4.4
2023-02-12T03:16:42.520Z,4.2
2023-02-12T03:19:36.204Z,4.6
2023-02-12T03:22:28.437Z,5.4
2023-02-12T03:25:19.292Z,6.1
2023-02-12T03:28:11.538Z,4.8
2023-02-12T03:31:03.844Z,4.1
2023-02-12T03:33:57.846Z,5.6
2023-02-12T03:36:54.335Z,4.9
2023-02-12T03:39:47.414Z,4.5
2023-02-12T03:42:42.562Z,6.2
2023-02-12T03:45:40.063Z,5.6
2023-02-12T03:48:35.431Z,4.7
2023-02-12T03:51:30.092Z,5.6
2023-02-12T03:54:21.312Z,5.2
2023-02-12T03:57:09.302Z,4.9
2023-02-12T04:00:01.948Z,5.2
2023-02-12T04:02:54.388Z,4.7
2023-02-12T04:05:42.542Z,5.6
2023-02-12T04:08:29.860Z,5.2
2023-02-12T04:11:18.284Z,5.2
2023-02-12T04:14:15.146Z,4.7
2023-02-12T04:17:11.915Z,4.9
2023-02-12T04:20:11.433Z,4.3
2023-02-12T04:23:10.211Z,4.6
2023-02-12T04:26:07.524Z,5
2023-02-12T04:29:08.419Z,3.8
2023-02-12T04:32:05.281Z,4.1
2023-02-12T04:34:59.950Z,3.7
2023-02-12T04:37:53.210Z,4.8
2023-02-12T04:40:47.476Z,3.5
2023-02-12T04:43:37.108Z,4.6
2023-02-12T04:46:24.591Z,4.5
2023-02-12T04:49:12.024Z,3.7
2023-02-12T04:52:01.795Z,4.3
2023-02-12T04:54:49.535Z,4.5
2023-02-12T04:57:36.984Z,3.9
2023-02-12T05:00:24.447Z,3.1
2023-02-12T05:03:12.204Z,4.4
2023-02-12T05:05:59.669Z,4.5
2023-02-12T05:08:49.204Z,4.6
2023-02-12T05:11:38.397Z,3.8
2023-02-12T05:14:25.916Z,4
2023-02-12T05:17:13.785Z,5.1
2023-02-12T05:20:01.204Z,4.1
2023-02-12T05:22:50.232Z,4
2023-02-12T05:25:38.911Z,4.6
2023-02-12T05:28:26.265Z,4.1
2023-02-12T05:31:14.698Z,3.8
2023-02-12T05:34:04.003Z,3.7
2023-02-12T05:36:53.888Z,4.8
2023-02-12T05:39:41.141Z,4.8
2023-02-12T05:42:28.552Z,3.9
2023-02-12T05:45:15.940Z,3.2
2023-02-12T05:48:03.319Z,3.5
2023-02-12T05:50:53.165Z,3.4
2023-02-12T05:53:46.317Z,4.2
2023-02-12T05:56:36.346Z,4
2023-02-12T05:59:28.759Z,4.6
2023-02-12T06:02:16.786Z,3.6
2023-02-12T06:05:04.570Z,3.8
2023-02-12T06:07:52.762Z,4
2023-02-12T06:10:40.122Z,4
2023-02-12T06:13:27.455Z,4.1
2023-02-12T06:16:15.677Z,3.3
2023-02-12T06:19:05.412Z,3.4
2023-02-12T06:21:53.026Z,3.4
2023-02-12T06:24:40.351Z,3.7
2023-02-12T06:27:27.721Z,3.4
2023-02-12T06:30:15.043Z,3.6
2023-02-12T06:33:02.754Z,3.3
2023-02-12T06:35:50.031Z,4.5
2023-02-12T06:38:37.522Z,3.3
2023-02-12T06:41:25.019Z,3.6
2023-02-12T06:44:12.518Z,4.1
2023-02-12T06:47:00.277Z,3
2023-02-12T06:49:48.124Z,3.9
2023-02-12T06:52:36.492Z,4.3
2023-02-12T06:55:23.976Z,6.8
2023-02-12T06:58:11.289Z,7.9
2023-02-12T07:00:58.794Z,7.9
2023-02-12T07:03:57.720Z,8.3
2023-02-12T07:06:47.818Z,8.4
2023-02-12T07:09:36.730Z,10.2
2023-02-12T07:12:24.076Z,9.9
2023-02-12T07:15:11.557Z,8.7
2023-02-12T07:17:59.275Z,8.8
2023-02-12T07:20:46.907Z,9.4
2023-02-12T07:23:35.546Z,10.8
2023-02-12T07:26:23.979Z,11.4
2023-02-12T07:29:11.390Z,11.4
2023-02-12T07:31:59.060Z,13
2023-02-12T07:34:46.553Z,14.9
2023-02-12T07:37:35.061Z,14.2
2023-02-12T07:40:22.478Z,11
2023-02-12T07:43:09.908Z,10.6
2023-02-12T07:45:57.546Z,9.8
2023-02-12T07:48:52.358Z,10.2
2023-02-12T07:51:39.642Z,9.3
2023-02-12T07:54:27.368Z,10.7
2023-02-12T07:57:14.645Z,10.4
2023-02-12T08:00:02.508Z,10.3
2023-02-12T08:02:52.141Z,10.7
2023-02-12T08:05:39.721Z,10.7
2023-02-12T08:08:27.581Z,11
2023-02-12T08:11:15.770Z,12
2023-02-12T08:14:03.504Z,11.1
2023-02-12T08:16:51.186Z,11.2
2023-02-12T08:19:38.692Z,10.4
2023-02-12T08:22:26.222Z,11.8
2023-02-12T08:25:13.718Z,15.3
2023-02-12T08:28:01.261Z,13
2023-02-12T08:30:49.317Z,11
2023-02-12T08:33:37.149Z,11.2
2023-02-12T08:36:24.591Z,10.9
2023-02-12T08:39:14.428Z,10.8
2023-02-12T08:42:02.827Z,10.5
2023-02-12T08:44:50.417Z,11.6
2023-02-12T08:47:37.863Z,12.7
2023-02-12T08:50:25.224Z,11.7
2023-02-12T08:53:12.587Z,10.1
2023-02-12T08:55:59.940Z,11
2023-02-12T08:58:48.300Z,10.4
2023-02-12T09:01:36.768Z,10.6
2023-02-12T09:04:26.331Z,10.7
2023-02-12T09:07:14.707Z,10.2
2023-02-12T09:10:02.719Z,9.1
2023-02-12T09:12:52.852Z,8.8
2023-02-12T09:15:40.241Z,8.9
2023-02-12T09:18:29.834Z,10.7
2023-02-12T09:21:17.542Z,9
2023-02-12T09:24:04.990Z,8.9
2023-02-12T09:26:53.105Z,8.9
2023-02-12T09:29:40.710Z,11
2023-02-12T09:32:28.077Z,9.8
2023-02-12T09:35:15.644Z,11
2023-02-12T09:38:03.748Z,9.9
2023-02-12T09:40:52.123Z,11.3
2023-02-12T09:44:00.887Z,11.7
2023-02-12T09:46:56.517Z,11.9
2023-02-12T09:49:54.685Z,12.6
2023-02-12T09:52:58.161Z,10.9
2023-02-12T09:55:46.460Z,10.5
2023-02-12T09:58:34.978Z,11.7
2023-02-12T10:01:29.038Z,10.6
2023-02-12T10:04:16.894Z,11.9
2023-02-12T10:07:12.133Z,12.5
2023-02-12T10:10:11.578Z,10.4
2023-02-12T10:13:13.154Z,11.7
2023-02-12T10:16:11.804Z,12.5
2023-02-12T10:19:13.363Z,13.6
2023-02-12T10:22:18.221Z,12.2
2023-02-12T10:25:17.032Z,12.7
2023-02-12T10:28:11.942Z,12.2
2023-02-12T10:31:04.228Z,12.4
2023-02-12T10:34:01.042Z,12.5
2023-02-12T10:36:59.258Z,10.1
2023-02-12T10:39:50.228Z,10
2023-02-12T10:42:44.749Z,9.5
2023-02-12T10:45:36.175Z,9.9
2023-02-12T10:48:26.670Z,10.3
2023-02-12T10:51:18.879Z,10.3
2023-02-12T10:54:44.292Z,9.7
2023-02-12T10:57:33.798Z,9.6
2023-02-12T11:00:24.616Z,10.1
2023-02-12T11:03:15.931Z,9.4
2023-02-12T11:06:08.788Z,9.2
2023-02-12T11:09:00.257Z,7.5
2023-02-12T11:11:50.293Z,7
2023-02-12T11:14:38.489Z,7
2023-02-12T11:17:33.321Z,6.6
2023-02-12T11:20:23.366Z,5.4
2023-02-12T11:23:14.520Z,6.7
2023-02-12T11:26:12.240Z,7.8
2023-02-12T11:29:12.520Z,7
2023-02-12T11:32:05.051Z,6.7
2023-02-12T11:35:00.337Z,6.8
2023-02-12T11:37:51.250Z,6.7
2023-02-12T11:40:41.888Z,6.4
2023-02-12T11:43:32.636Z,8
2023-02-12T11:46:24.084Z,6.4
2023-02-12T11:49:13.354Z,7.2
2023-02-12T11:52:06.566Z,7.5
2023-02-12T11:55:06.108Z,7.5
2023-02-12T11:58:07.166Z,10.9
2023-02-12T12:01:05.276Z,8.4
2023-02-12T12:03:59.808Z,8.1
2023-02-12T12:06:53.551Z,8.8
2023-02-12T12:09:45.804Z,7.9
2023-02-12T12:12:44.069Z,7.7
2023-02-12T12:15:39.203Z,8.2
2023-02-12T12:19:02.762Z,7.6
2023-02-12T12:23:04.391Z,8.3
2023-02-12T12:25:59.232Z,9.2
2023-02-12T12:28:53.345Z,8.4
2023-02-12T12:31:51.315Z,8.7
2023-02-12T12:34:42.982Z,7.5
2023-02-12T12:37:30.532Z,8.2
2023-02-12T12:40:27.733Z,7.9
2023-02-12T12:43:27.794Z,7.3
2023-02-12T12:46:24.363Z,6.4
2023-02-12T12:49:30.562Z,8
2023-02-12T12:52:33.899Z,7.6
2023-02-12T12:55:38.985Z,7
2023-02-12T12:58:38.929Z,6.8
2023-02-12T13:01:44.221Z,6.7
2023-02-12T13:04:46.412Z,8.7
2023-02-12T13:07:55.000Z,8.9
2023-02-12T13:10:50.484Z,7.9
2023-02-12T13:13:44.016Z,6.8
2023-02-12T13:16:35.770Z,6.3
2023-02-12T13:19:29.521Z,6.8
2023-02-12T13:22:29.051Z,6.3
2023-02-12T13:25:22.918Z,7.1
2023-02-12T13:28:17.182Z,6.7
2023-02-12T13:31:31.565Z,6.6
2023-02-12T13:34:30.969Z,7.1
2023-02-12T13:37:21.262Z,7.2
2023-02-12T13:40:21.674Z,6.6
2023-02-12T13:43:11.235Z,6.6
2023-02-12T13:46:16.024Z,6.5
2023-02-12T13:49:11.409Z,7.4
2023-02-12T13:52:09.364Z,7.7
2023-02-12T13:55:04.495Z,7.5
2023-02-12T13:58:06.653Z,6.9
2023-02-12T14:01:33.395Z,8.2
2023-02-12T14:04:26.230Z,8.1
2023-02-12T14:07:16.390Z,6.2
2023-02-12T14:10:04.584Z,6.8
2023-02-12T14:12:53.814Z,7.3
2023-02-12T14:15:44.896Z,7.7
2023-02-12T14:18:36.134Z,8.2
2023-02-12T14:21:23.559Z,8.2
2023-02-12T14:24:27.823Z,8
2023-02-12T14:27:35.068Z,8.8
2023-02-12T14:30:29.622Z,9
2023-02-12T14:33:20.261Z,9.7
2023-02-12T14:36:11.487Z,8.7
2023-02-12T14:39:04.611Z,7.9
2023-02-12T14:42:14.511Z,6.5
2023-02-12T14:45:40.704Z,5.3
2023-02-12T14:48:28.159Z,5.6
2023-02-12T14:51:38.014Z,4
2023-02-12T14:54:31.964Z,3.7
2023-02-12T14:57:24.821Z,4.1
2023-02-12T15:00:15.000Z,4.2
2023-02-12T15:03:11.475Z,4.9
2023-02-12T15:06:06.964Z,4.4
2023-02-12T15:09:01.838Z,4.3
2023-02-12T15:11:56.812Z,4.5
2023-02-12T15:14:50.522Z,4.5
2023-02-12T15:17:46.635Z,4.9
2023-02-12T15:20:42.073Z,4.5
2023-02-12T15:23:36.068Z,5.3
2023-02-12T15:26:25.889Z,5.1
2023-02-12T15:29:16.789Z,5.4
2023-02-12T15:32:09.314Z,4.8
2023-02-12T15:35:05.234Z,4.4
2023-02-12T15:38:08.122Z,5
2023-02-12T15:41:06.228Z,5.6
2023-02-12T15:44:08.258Z,4.4
2023-02-12T15:47:06.478Z,5.2
2023-02-12T15:49:59.155Z,4.7
2023-02-12T15:52:46.597Z,3.9
2023-02-12T15:55:36.864Z,4.6
2023-02-12T15:58:28.712Z,4.7
2023-02-12T16:01:25.593Z,4.9
2023-02-12T16:04:15.462Z,5
2023-02-12T16:07:03.019Z,3.9
2023-02-12T16:09:52.364Z,3.6
2023-02-12T16:12:40.332Z,4.1
2023-02-12T16:15:27.981Z,4.2
2023-02-12T16:18:19.892Z,4.1
2023-02-12T16:21:09.475Z,4.2
2023-02-12T16:24:00.240Z,4.4
2023-02-12T16:26:48.941Z,4.6
2023-02-12T16:29:37.297Z,4.2
2023-02-12T16:32:30.729Z,4.4
2023-02-12T16:35:23.010Z,5.2
2023-02-12T16:38:14.214Z,4.2
2023-02-12T16:41:35.219Z,4.5
2023-02-12T16:44:38.290Z,4.8
2023-02-12T16:47:25.683Z,4.7
2023-02-12T16:50:13.202Z,4.7
2023-02-12T16:53:01.391Z,5.2
2023-02-12T16:55:51.859Z,4.8
2023-02-12T16:58:39.287Z,4.6
2023-02-12T17:01:26.609Z,5.1
2023-02-12T17:04:16.662Z,5.5
2023-02-12T17:07:03.989Z,4.8
2023-02-12T17:10:04.014Z,4.8
2023-02-12T17:12:53.147Z,6
2023-02-12T17:15:40.700Z,8.4
2023-02-12T17:18:31.954Z,5.1
2023-02-12T17:21:20.604Z,5.4
2023-02-12T17:24:12.359Z,5.1
2023-02-12T17:27:05.004Z,6.2
2023-02-12T17:29:52.572Z,5.7
2023-02-12T17:32:40.185Z,5.8
2023-02-12T17:35:27.793Z,5.8
2023-02-12T17:38:15.759Z,5.5
2023-02-12T17:41:03.069Z,5.6
2023-02-12T17:43:54.835Z,4.6
2023-02-12T17:46:42.418Z,5.4
2023-02-12T17:49:29.919Z,4.7
2023-02-12T17:52:18.561Z,7
2023-02-12T17:55:05.938Z,7
2023-02-12T17:57:55.974Z,6.3
2023-02-12T18:00:43.453Z,5.7
2023-02-12T18:03:30.900Z,6
2023-02-12T18:06:18.659Z,8.8
2023-02-12T18:09:09.466Z,7.1
2023-02-12T18:11:56.835Z,6.9
2023-02-12T18:14:44.674Z,5.9
2023-02-12T18:17:32.070Z,6.4
2023-02-12T18:20:19.898Z,7.1
2023-02-12T18:23:07.459Z,6.4
2023-02-12T18:25:55.000Z,6.2
2023-02-12T18:28:42.397Z,4.9
2023-02-12T18:31:30.780Z,5.8
2023-02-12T18:34:18.525Z,6.2
2023-02-12T18:37:05.872Z,6
2023-02-12T18:39:53.983Z,5.8
2023-02-12T18:42:41.284Z,7.2
2023-02-12T18:45:28.714Z,7.1
2023-02-12T18:48:16.038Z,5.7
2023-02-12T18:51:03.728Z,6.9
2023-02-12T18:53:53.161Z,7.8
2023-02-12T18:56:41.521Z,7.4
2023-02-12T18:59:31.289Z,7.2
2023-02-12T19:02:18.823Z,9.1
2023-02-12T19:05:06.373Z,9.3
2023-02-12T19:07:54.410Z,7.5
2023-02-12T19:10:42.233Z,8.2
2023-02-12T19:13:32.882Z,7.5
2023-02-12T19:16:20.443Z,7.9
2023-02-12T19:19:09.750Z,8.4
2023-02-12T19:21:58.312Z,7.8
2023-02-12T19:24:47.137Z,8
2023-02-12T19:27:36.459Z,8.3
2023-02-12T19:30:23.900Z,9.5
2023-02-12T19:33:11.344Z,9.8
2023-02-12T19:35:58.777Z,8.3
2023-02-12T19:38:46.357Z,7.8
2023-02-12T19:41:34.232Z,10.2
2023-02-12T19:44:25.290Z,10.2
2023-02-12T19:47:12.792Z,8
2023-02-12T19:50:00.864Z,9.4
2023-02-12T19:52:49.810Z,9.5
2023-02-12T19:55:37.316Z,8.3
2023-02-12T19:58:24.654Z,9.3
2023-02-12T20:01:12.116Z,10.2
2023-02-12T20:04:02.510Z,9.6
2023-02-12T20:06:50.623Z,11.3
2023-02-12T20:09:38.354Z,9.5
2023-02-12T20:12:25.860Z,10.3
2023-02-12T20:15:13.199Z,9.6
2023-02-12T20:18:00.711Z,9.3
2023-02-12T20:20:48.574Z,10.9
2023-02-12T20:23:36.918Z,9.4
2023-02-12T20:26:25.037Z,10.6
2023-02-12T20:29:13.049Z,9.6
2023-02-12T20:32:00.541Z,9.7
2023-02-12T20:34:51.109Z,9.5
2023-02-12T20:37:38.759Z,9.3
2023-02-12T20:40:26.679Z,9
2023-02-12T20:43:14.028Z,7.8
2023-02-12T20:46:01.794Z,8.5
2023-02-12T20:48:50.823Z,9
2023-02-12T20:51:39.665Z,10.1
2023-02-12T20:54:27.960Z,8.5
2023-02-12T20:57:15.383Z,8.6
2023-02-12T21:00:03.217Z,9.4
2023-02-12T21:02:52.848Z,9.6
2023-02-12T21:05:40.378Z,10.1
2023-02-12T21:08:27.758Z,10.2
2023-02-12T21:11:15.998Z,9.1
2023-02-12T21:14:21.166Z,10.4
2023-02-12T21:17:11.143Z,10.7
2023-02-12T21:19:58.804Z,10.7
2023-02-12T21:22:46.132Z,10.4
2023-02-12T21:25:33.858Z,9.5
2023-02-12T21:28:21.815Z,10.7
2023-02-12T21:31:09.573Z,10.7
2023-02-12T21:33:59.124Z,9.5
2023-02-12T21:36:48.438Z,9.4
2023-02-12T21:39:39.071Z,9
2023-02-12T21:42:26.514Z,8.8
2023-02-12T21:45:13.842Z,9.8
2023-02-12T21:48:02.009Z,8.6
2023-02-12T21:50:50.040Z,9
2023-02-12T21:53:37.541Z,7.8
2023-02-12T21:56:24.865Z,9.1
2023-02-12T21:59:13.123Z,8.9
2023-02-12T22:02:01.902Z,8.2
2023-02-12T22:04:50.754Z,8.4
2023-02-12T22:07:39.186Z,7.2
2023-02-12T22:10:26.610Z,7.9
2023-02-12T22:13:14.375Z,8.5
2023-02-12T22:16:01.853Z,7.1
2023-02-12T22:18:58.931Z,6.8
2023-02-12T22:21:47.589Z,6.9
2023-02-12T22:24:36.619Z,6.8
2023-02-12T22:27:23.870Z,7.2
2023-02-12T22:30:11.747Z,7.5
2023-02-12T22:32:59.655Z,6.8
2023-02-12T22:35:47.047Z,6.8
2023-02-12T22:38:35.266Z,6.9
2023-02-12T22:41:24.347Z,7.4
2023-02-12T22:44:12.921Z,7.4
2023-02-12T22:47:01.482Z,6.7
2023-02-12T22:49:50.379Z,5.8
2023-02-12T22:52:37.727Z,7.3
2023-02-12T22:55:25.126Z,7.1
2023-02-12T22:58:12.475Z,6.9
2023-02-12T23:01:00.866Z,6.4
2023-02-12T23:03:53.250Z,6.9
2023-02-12T23:06:40.686Z,5.8
2023-02-12T23:09:28.753Z,5.4
2023-02-12T23:12:16.273Z,5.8
2023-02-12T23:15:03.614Z,4.8
2023-02-12T23:17:52.039Z,5
2023-02-12T23:20:39.354Z,5.3
2023-02-12T23:23:26.814Z,4.9
2023-02-12T23:26:14.171Z,5.2
2023-02-12T23:29:01.634Z,4.3
2023-02-12T23:31:49.291Z,4.5
2023-02-12T23:34:37.427Z,4.5
2023-02-12T23:37:26.643Z,4.9
2023-02-12T23:40:13.965Z,4.8
2023-02-12T23:43:01.520Z,4.8
2023-02-12T23:45:49.637Z,5.1
2023-02-12T23:48:37.345Z,4.6
2023-02-12T23:51:26.260Z,4.5
2023-02-12T23:54:13.722Z,4.7
2023-02-12T23:57:01.249Z,4.3
2023-02-12T23:59:48.759Z,4.4
